CA-0038 weather

CLOSED Beatton River Airport
British Columbia, Canada

Public forecast

Using degrees Celsius for public forecast. Weather courtesy of forecast.io.

Closest aviation weather report (METAR) to Beatton River Airport

Closest report is Fort St John Airport, 72.0 nm (133.4 km) SSE. Retrieved 2019/10/18 22:00 UTC (35 minutes ago):

CYXJ 182200Z 21017KT 60SM VCSH BKN040 BKN120 BKN220 08/00 A2932 RMK CU6AC1CI1 CI TR SLP951 DENSITY ALT 2700FT

Closest aviation forecast (TAF) to Beatton River Airport

Closest forecast is Fort St John Airport, 72.0 nm (133.4 km) SSE. Retrieved 2019/10/18 19:42 UTC (3 hours ago):

TAF CYXJ 181838Z 1819/1907 16005KT P6SM SCT080 BKN180 TEMPO 1819/1821 P6SM -RA BKN060 BECMG 1819/1821 23008KT FM182100 23008KT P6SM SCT030 BKN060 TEMPO 1821/1903 P6SM -RA BKN030 OVC060 FM190300 24010KT P6SM SCT050 BKN080 TEMPO 1903/1907 P6SM -RA BKN050 RMK NXT FCST BY 190100Z